createdAt,value
2018-09-10T00:01:28.799Z,15.60
2018-09-10T00:03:57.272Z,15.60
2018-09-10T00:06:25.687Z,15.50
2018-09-10T00:08:54.080Z,15.50
2018-09-10T00:11:22.617Z,15.50
2018-09-10T00:13:51.048Z,15.50
2018-09-10T00:16:19.520Z,15.50
2018-09-10T00:18:48.090Z,15.40
2018-09-10T00:21:16.580Z,15.40
2018-09-10T00:23:44.972Z,15.40
2018-09-10T00:26:13.375Z,15.50
2018-09-10T00:28:41.821Z,15.40
2018-09-10T00:31:10.225Z,15.40
2018-09-10T00:33:38.641Z,15.40
2018-09-10T00:36:07.065Z,15.40
2018-09-10T00:38:35.802Z,15.20
2018-09-10T00:41:04.274Z,15.20
2018-09-10T00:43:32.640Z,15.20
2018-09-10T00:46:01.138Z,15.20
2018-09-10T00:48:29.513Z,15.10
2018-09-10T00:50:57.931Z,15.10
2018-09-10T00:53:26.299Z,15.00
2018-09-10T00:55:54.720Z,15.00
2018-09-10T00:58:23.148Z,14.90
2018-09-10T01:00:51.653Z,14.90
2018-09-10T01:03:20.068Z,15.00
2018-09-10T01:05:48.526Z,14.90
2018-09-10T01:08:16.973Z,15.00
2018-09-10T01:10:45.524Z,14.90
2018-09-10T01:13:14.162Z,14.90
2018-09-10T01:15:42.655Z,14.90
2018-09-10T01:18:11.124Z,14.80
2018-09-10T01:20:39.540Z,14.80
2018-09-10T01:23:07.956Z,14.80
2018-09-10T01:25:36.496Z,14.80
2018-09-10T01:28:04.972Z,14.70
2018-09-10T01:30:33.489Z,14.60
2018-09-10T01:33:01.880Z,14.60
2018-09-10T01:35:33.177Z,14.70
2018-09-10T01:38:01.538Z,14.60
2018-09-10T01:40:30.002Z,14.60
2018-09-10T01:42:58.412Z,14.60
2018-09-10T01:45:26.816Z,14.50
2018-09-10T01:47:55.153Z,14.60
2018-09-10T01:50:23.525Z,14.50
2018-09-10T01:52:51.930Z,14.50
2018-09-10T01:55:20.380Z,14.50
2018-09-10T01:57:48.902Z,14.40
2018-09-10T02:00:17.388Z,14.40
2018-09-10T02:02:45.773Z,14.40
2018-09-10T02:05:14.346Z,14.40
2018-09-10T02:07:42.759Z,14.40
2018-09-10T02:10:11.107Z,14.30
2018-09-10T02:12:39.521Z,14.30
2018-09-10T02:15:07.995Z,14.30
2018-09-10T02:17:36.465Z,14.30
2018-09-10T02:20:05.222Z,14.30
2018-09-10T02:22:33.609Z,14.30
2018-09-10T02:25:01.964Z,14.30
2018-09-10T02:27:30.546Z,14.40
2018-09-10T02:29:58.824Z,14.30
2018-09-10T02:32:27.188Z,14.30
2018-09-10T02:34:55.619Z,14.40
2018-09-10T02:37:23.996Z,14.40
2018-09-10T02:39:52.380Z,14.40
2018-09-10T02:42:20.949Z,14.30
2018-09-10T02:44:49.489Z,14.40
2018-09-10T02:47:17.944Z,14.40
2018-09-10T02:49:46.407Z,14.40
2018-09-10T02:52:14.811Z,14.40
2018-09-10T02:54:43.190Z,14.40
2018-09-10T02:57:11.714Z,14.50
2018-09-10T02:59:40.117Z,14.40
2018-09-10T03:02:08.932Z,14.30
2018-09-10T03:04:37.391Z,14.40
2018-09-10T03:07:05.806Z,14.40
2018-09-10T03:09:34.200Z,14.40
2018-09-10T03:12:03.041Z,14.40
2018-09-10T03:14:31.423Z,14.30
2018-09-10T03:16:59.876Z,14.20
2018-09-10T03:19:28.270Z,14.10
2018-09-10T03:21:56.762Z,14.10
2018-09-10T03:24:25.361Z,14.10
2018-09-10T03:26:53.789Z,14.10
2018-09-10T03:29:22.129Z,14.00
2018-09-10T03:31:50.552Z,14.10
2018-09-10T03:34:18.999Z,14.10
2018-09-10T03:36:47.545Z,14.10
2018-09-10T03:39:16.446Z,14.00
2018-09-10T03:41:44.958Z,14.00
2018-09-10T03:44:13.362Z,14.00
2018-09-10T03:46:41.780Z,14.00
2018-09-10T03:49:11.221Z,13.90
2018-09-10T03:51:39.698Z,13.90
2018-09-10T03:54:08.270Z,13.80
2018-09-10T03:56:36.722Z,13.80
2018-09-10T03:59:05.136Z,13.80
2018-09-10T04:01:33.769Z,13.80
2018-09-10T04:04:02.220Z,13.80
2018-09-10T04:06:30.612Z,13.90
2018-09-10T04:08:59.086Z,13.80
2018-09-10T04:11:27.504Z,13.80
2018-09-10T04:13:56.057Z,13.70
2018-09-10T04:16:24.502Z,13.70
2018-09-10T04:18:52.970Z,13.70
2018-09-10T04:21:21.653Z,13.80
2018-09-10T04:23:50.104Z,13.80
2018-09-10T04:26:18.739Z,13.80
2018-09-10T04:28:47.265Z,13.70
2018-09-10T04:31:15.751Z,13.80
2018-09-10T04:33:44.197Z,13.80
2018-09-10T04:36:12.653Z,13.70
2018-09-10T04:38:41.072Z,13.70
2018-09-10T04:41:09.484Z,13.50
2018-09-10T04:43:38.033Z,13.40
2018-09-10T04:46:06.422Z,13.50
2018-09-10T04:48:34.863Z,13.50
2018-09-10T04:51:03.224Z,13.60
2018-09-10T04:53:31.621Z,13.80
2018-09-10T04:56:00.012Z,13.90
2018-09-10T04:58:28.521Z,13.90
2018-09-10T05:00:56.929Z,13.90
2018-09-10T05:03:25.373Z,13.90
2018-09-10T05:05:53.798Z,13.90
2018-09-10T05:08:22.381Z,13.90
2018-09-10T05:10:50.991Z,13.90
2018-09-10T05:13:19.410Z,13.90
2018-09-10T05:15:48.209Z,13.80
2018-09-10T05:18:16.679Z,13.80
2018-09-10T05:20:45.252Z,13.80
2018-09-10T05:23:13.944Z,13.70
2018-09-10T05:25:42.347Z,13.70
2018-09-10T05:28:10.894Z,13.60
2018-09-10T05:30:39.233Z,13.50
2018-09-10T05:33:07.575Z,13.60
2018-09-10T05:35:35.992Z,13.60
2018-09-10T05:38:04.348Z,13.70
2018-09-10T05:40:32.772Z,13.70
2018-09-10T05:43:01.120Z,13.70
2018-09-10T05:45:29.646Z,13.80
2018-09-10T05:47:58.088Z,13.80
2018-09-10T05:50:26.484Z,13.90
2018-09-10T05:52:55.340Z,14.00
2018-09-10T05:55:23.764Z,14.00
2018-09-10T05:57:52.689Z,14.10
2018-09-10T06:00:21.176Z,14.10
2018-09-10T06:02:50.102Z,14.20
2018-09-10T06:05:18.541Z,14.20
2018-09-10T06:07:47.002Z,14.20
2018-09-10T06:10:15.444Z,14.20
2018-09-10T06:12:43.898Z,14.20
2018-09-10T06:15:12.391Z,14.30
2018-09-10T06:17:40.773Z,14.30
2018-09-10T06:20:09.288Z,14.40
2018-09-10T06:22:37.702Z,14.50
2018-09-10T06:25:06.191Z,14.60
2018-09-10T06:27:34.591Z,14.60
2018-09-10T06:30:03.510Z,14.70
2018-09-10T06:32:31.948Z,14.80
2018-09-10T06:35:00.310Z,15.00
2018-09-10T06:37:28.708Z,15.30
2018-09-10T06:39:57.149Z,15.50
2018-09-10T06:42:25.600Z,15.80
2018-09-10T06:44:54.031Z,16.10
2018-09-10T06:47:23.377Z,16.40
2018-09-10T06:49:51.839Z,16.50
2018-09-10T06:52:20.706Z,16.60
2018-09-10T06:54:49.601Z,16.70
2018-09-10T06:57:18.638Z,16.60
2018-09-10T06:59:47.177Z,16.70
2018-09-10T07:02:15.669Z,16.70
2018-09-10T07:04:44.099Z,16.70
2018-09-10T07:07:13.587Z,16.70
2018-09-10T07:09:41.970Z,16.80
2018-09-10T07:12:10.384Z,16.70
2018-09-10T07:14:38.944Z,16.80
2018-09-10T07:17:07.374Z,16.80
2018-09-10T07:19:35.898Z,16.80
2018-09-10T07:22:04.366Z,16.70
2018-09-10T07:24:33.808Z,16.70
2018-09-10T07:27:02.264Z,16.80
2018-09-10T07:29:30.720Z,16.90
2018-09-10T07:31:59.119Z,17.00
2018-09-10T07:34:27.566Z,17.20
2018-09-10T07:36:55.950Z,17.40
2018-09-10T07:39:24.371Z,17.40
2018-09-10T07:41:52.791Z,17.50
2018-09-10T07:44:21.233Z,17.60
2018-09-10T07:46:49.577Z,17.60
2018-09-10T07:49:18.816Z,17.70
2018-09-10T07:51:47.408Z,17.80
2018-09-10T07:54:15.972Z,18.00
2018-09-10T07:56:44.378Z,18.10
2018-09-10T07:59:12.912Z,18.20
2018-09-10T08:01:41.367Z,18.20
2018-09-10T08:04:09.834Z,18.40
2018-09-10T08:06:38.282Z,18.50
2018-09-10T08:09:08.696Z,18.70
2018-09-10T08:11:37.148Z,19.50
2018-09-10T08:14:05.562Z,20.00
2018-09-10T08:16:34.059Z,20.00
2018-09-10T08:19:02.489Z,20.10
2018-09-10T08:21:30.892Z,20.10
2018-09-10T08:23:59.368Z,19.90
2018-09-10T08:26:27.890Z,19.80
2018-09-10T08:28:56.288Z,19.70
2018-09-10T08:31:24.741Z,19.60
2018-09-10T08:33:53.319Z,19.60
2018-09-10T08:36:21.772Z,19.50
2018-09-10T08:38:50.322Z,19.50
2018-09-10T08:41:18.774Z,19.60
2018-09-10T08:43:47.342Z,19.60
2018-09-10T08:46:16.026Z,19.80
2018-09-10T08:48:44.947Z,19.80
2018-09-10T08:51:13.291Z,19.90
2018-09-10T08:53:41.761Z,20.00
2018-09-10T08:56:10.496Z,20.00
2018-09-10T08:58:38.632Z,20.10
2018-09-10T09:01:07.129Z,20.00
2018-09-10T09:03:35.617Z,20.00
2018-09-10T09:06:04.124Z,20.00
2018-09-10T09:08:32.652Z,19.90
2018-09-10T09:11:01.095Z,19.80
2018-09-10T09:13:29.528Z,19.70
2018-09-10T09:15:57.972Z,19.70
2018-09-10T09:18:26.409Z,19.80
2018-09-10T09:20:54.824Z,19.90
2018-09-10T09:23:23.373Z,20.00
2018-09-10T09:25:51.788Z,20.00
2018-09-10T09:28:20.559Z,20.00
2018-09-10T09:30:49.016Z,20.00
2018-09-10T09:33:17.620Z,20.10
2018-09-10T09:35:52.493Z,20.20
2018-09-10T09:40:34.321Z,20.30
2018-09-10T09:43:08.152Z,20.30
2018-09-10T09:45:41.940Z,20.40
2018-09-10T09:48:10.421Z,20.60
2018-09-10T09:50:38.819Z,20.70
2018-09-10T09:53:07.285Z,20.70
2018-09-10T09:55:35.803Z,20.70
2018-09-10T09:58:04.192Z,20.70
2018-09-10T10:00:37.810Z,20.70
2018-09-10T10:03:11.610Z,20.80
2018-09-10T10:05:40.178Z,20.80
2018-09-10T10:08:08.659Z,20.90
2018-09-10T10:10:37.150Z,20.90
2018-09-10T10:13:05.628Z,20.80
2018-09-10T10:15:34.019Z,20.90
2018-09-10T10:18:02.543Z,20.90
2018-09-10T10:20:31.025Z,20.90
2018-09-10T10:22:59.374Z,20.90
2018-09-10T10:25:27.833Z,20.90
2018-09-10T10:27:59.330Z,21.10
2018-09-10T10:30:28.311Z,21.10
2018-09-10T10:32:56.691Z,21.20
2018-09-10T10:35:25.148Z,21.30
2018-09-10T10:37:53.648Z,21.30
2018-09-10T10:40:22.208Z,21.40
2018-09-10T10:42:51.309Z,21.40
2018-09-10T10:45:19.928Z,21.50
2018-09-10T10:47:48.494Z,21.50
2018-09-10T10:50:17.864Z,21.50
2018-09-10T10:52:46.580Z,21.50
2018-09-10T10:55:15.146Z,21.40
2018-09-10T10:57:43.568Z,21.40
2018-09-10T11:00:12.028Z,21.40
2018-09-10T11:02:40.491Z,21.50
2018-09-10T11:05:08.977Z,21.50
2018-09-10T11:07:37.516Z,21.50
2018-09-10T11:10:07.265Z,21.60
2018-09-10T11:12:35.705Z,21.60
2018-09-10T11:15:04.250Z,21.60
2018-09-10T11:17:32.596Z,21.60
2018-09-10T11:20:01.142Z,21.60
2018-09-10T11:22:32.695Z,21.70
2018-09-10T11:25:04.009Z,21.80
2018-09-10T11:27:32.515Z,21.90
2018-09-10T11:30:00.901Z,21.90
2018-09-10T11:32:30.506Z,22.00
2018-09-10T11:34:59.300Z,22.00
2018-09-10T11:37:27.762Z,22.10
2018-09-10T11:39:56.191Z,22.10
2018-09-10T11:42:24.610Z,22.00
2018-09-10T11:44:53.155Z,22.10
2018-09-10T11:47:21.630Z,22.10
2018-09-10T11:49:50.181Z,22.10
2018-09-10T11:52:18.652Z,22.20
2018-09-10T11:54:47.088Z,22.30
2018-09-10T11:57:15.515Z,22.40
2018-09-10T11:59:44.019Z,22.40
2018-09-10T12:02:12.517Z,22.40
2018-09-10T12:04:40.912Z,22.40
2018-09-10T12:07:09.312Z,22.50
2018-09-10T12:09:37.914Z,22.50
2018-09-10T12:12:06.370Z,22.60
2018-09-10T12:14:34.851Z,22.70
2018-09-10T12:17:03.255Z,22.80
2018-09-10T12:19:31.860Z,22.80
2018-09-10T12:22:00.255Z,22.90
2018-09-10T12:24:28.674Z,22.90
2018-09-10T12:26:57.544Z,23.00
2018-09-10T12:29:26.079Z,23.10
2018-09-10T12:31:54.523Z,23.20
2018-09-10T12:34:22.968Z,23.30
2018-09-10T12:36:51.616Z,23.40
2018-09-10T12:39:20.434Z,23.40
2018-09-10T12:41:49.224Z,23.40
2018-09-10T12:44:17.811Z,23.40
2018-09-10T12:46:46.369Z,23.40
2018-09-10T12:49:14.757Z,23.70
2018-09-10T12:51:43.153Z,23.80
2018-09-10T12:54:11.585Z,23.80
2018-09-10T12:56:39.993Z,23.80
2018-09-10T12:59:08.476Z,23.90
2018-09-10T13:01:42.480Z,23.90
2018-09-10T13:04:11.191Z,23.90
2018-09-10T13:06:39.585Z,23.90
2018-09-10T13:09:08.618Z,24.00
2018-09-10T13:11:37.136Z,24.20
2018-09-10T13:14:05.669Z,24.20
2018-09-10T13:16:34.092Z,24.30
2018-09-10T13:19:02.602Z,24.40
2018-09-10T13:21:31.101Z,24.30
2018-09-10T13:23:59.584Z,24.30
2018-09-10T13:26:28.042Z,24.30
2018-09-10T13:28:56.578Z,24.30
2018-09-10T13:31:25.039Z,24.30
2018-09-10T13:33:53.421Z,24.30
2018-09-10T13:36:21.796Z,24.40
2018-09-10T13:38:50.345Z,24.40
2018-09-10T13:41:18.743Z,24.50
2018-09-10T13:43:47.274Z,24.50
2018-09-10T13:46:16.291Z,24.40
2018-09-10T13:48:44.682Z,24.50
2018-09-10T13:51:13.122Z,24.50
2018-09-10T13:53:41.441Z,24.60
2018-09-10T13:56:09.860Z,24.70
2018-09-10T13:58:38.944Z,24.70
2018-09-10T14:01:07.613Z,24.70
2018-09-10T14:03:36.029Z,24.90
2018-09-10T14:06:04.455Z,25.00
2018-09-10T14:08:32.908Z,25.10
2018-09-10T14:11:01.728Z,25.10
2018-09-10T14:13:30.097Z,25.20
2018-09-10T14:15:58.516Z,25.20
2018-09-10T14:18:26.949Z,25.30
2018-09-10T14:20:55.392Z,25.40
2018-09-10T14:23:23.868Z,25.40
2018-09-10T14:25:52.306Z,25.30
2018-09-10T14:28:21.158Z,25.30
2018-09-10T14:30:49.980Z,25.20
2018-09-10T14:33:18.627Z,25.20
2018-09-10T14:35:47.208Z,25.10
2018-09-10T14:38:15.674Z,25.10
2018-09-10T14:40:44.171Z,25.10
2018-09-10T14:43:12.722Z,25.20
2018-09-10T14:45:44.726Z,25.10
2018-09-10T14:48:13.517Z,25.10
2018-09-10T14:50:41.921Z,25.10
2018-09-10T14:53:10.497Z,25.10
2018-09-10T14:55:38.945Z,25.10
2018-09-10T14:58:07.464Z,25.10
2018-09-10T15:00:35.841Z,25.00
2018-09-10T15:03:04.220Z,25.00
2018-09-10T15:05:32.681Z,25.00
2018-09-10T15:08:01.621Z,25.00
2018-09-10T15:10:30.010Z,25.00
2018-09-10T15:12:58.537Z,25.10
2018-09-10T15:15:27.441Z,25.10
2018-09-10T15:17:56.276Z,25.00
2018-09-10T15:20:25.248Z,25.10
2018-09-10T15:22:54.180Z,25.10
2018-09-10T15:25:23.275Z,25.10
2018-09-10T15:27:52.092Z,25.10
2018-09-10T15:30:21.056Z,25.10
2018-09-10T15:32:49.957Z,24.90
2018-09-10T15:35:18.848Z,24.90
2018-09-10T15:37:47.797Z,25.00
2018-09-10T15:40:16.759Z,24.90
2018-09-10T15:42:45.683Z,24.90
2018-09-10T15:45:15.381Z,24.80
2018-09-10T15:47:44.467Z,24.80
2018-09-10T15:50:13.442Z,24.80
2018-09-10T15:52:41.974Z,24.70
2018-09-10T15:55:10.388Z,24.60
2018-09-10T15:57:38.867Z,24.60
2018-09-10T16:00:07.321Z,24.70
2018-09-10T16:02:35.732Z,24.50
2018-09-10T16:05:04.248Z,24.50
2018-09-10T16:07:33.096Z,24.50
2018-09-10T16:10:02.131Z,24.50
2018-09-10T16:12:30.949Z,24.40
2018-09-10T16:14:59.766Z,24.40
2018-09-10T16:17:28.294Z,24.40
2018-09-10T16:19:57.157Z,24.40
2018-09-10T16:22:26.134Z,24.40
2018-09-10T16:24:55.133Z,24.40
2018-09-10T16:27:24.074Z,24.40
2018-09-10T16:29:53.042Z,24.40
2018-09-10T16:32:22.028Z,24.40
2018-09-10T16:34:51.580Z,24.40
2018-09-10T16:37:20.601Z,24.30
2018-09-10T16:39:49.484Z,24.20
2018-09-10T16:42:18.100Z,24.20
2018-09-10T16:44:46.579Z,24.10
2018-09-10T16:47:15.814Z,24.10
2018-09-10T16:49:44.535Z,24.10
2018-09-10T16:52:14.320Z,24.00
2018-09-10T16:54:44.058Z,24.00
2018-09-10T16:57:12.930Z,24.00
2018-09-10T16:59:41.884Z,24.00
2018-09-10T17:02:10.340Z,24.00
2018-09-10T17:04:38.924Z,24.00
2018-09-10T17:07:11.321Z,24.00
2018-09-10T17:09:46.477Z,23.90
2018-09-10T17:12:15.679Z,23.90
2018-09-10T17:14:44.161Z,23.80
2018-09-10T17:17:12.836Z,23.80
2018-09-10T17:19:42.143Z,23.70
2018-09-10T17:22:11.958Z,23.70
2018-09-10T17:24:41.425Z,23.60
2018-09-10T17:27:10.473Z,23.50
2018-09-10T17:29:39.387Z,23.50
2018-09-10T17:32:08.427Z,23.40
2018-09-10T17:34:37.307Z,23.40
2018-09-10T17:37:08.856Z,23.30
2018-09-10T17:39:38.654Z,23.20
2018-09-10T17:42:08.769Z,23.20
2018-09-10T17:44:41.588Z,23.20
2018-09-10T17:47:10.699Z,23.10
2018-09-10T17:49:39.518Z,23.10
2018-09-10T17:52:11.351Z,23.00
2018-09-10T17:54:40.558Z,22.90
2018-09-10T17:57:09.765Z,22.90
2018-09-10T17:59:40.591Z,22.90
2018-09-10T18:02:09.128Z,22.80
2018-09-10T18:04:37.724Z,22.80
2018-09-10T18:07:07.112Z,22.70
2018-09-10T18:09:36.094Z,22.70
2018-09-10T18:12:06.008Z,22.70
2018-09-10T18:14:34.901Z,22.60
2018-09-10T18:17:03.549Z,22.60
2018-09-10T18:19:33.530Z,22.60
2018-09-10T18:22:02.951Z,22.60
2018-09-10T18:24:31.718Z,22.60
2018-09-10T18:27:00.683Z,22.50
2018-09-10T18:29:29.228Z,22.50
2018-09-10T18:31:57.805Z,22.50
2018-09-10T18:34:26.314Z,22.40
2018-09-10T18:36:54.765Z,22.40
2018-09-10T18:39:23.263Z,22.40
2018-09-10T18:41:52.216Z,22.30
2018-09-10T18:44:21.141Z,22.30
2018-09-10T18:46:49.806Z,22.20
2018-09-10T18:49:18.371Z,22.20
2018-09-10T18:51:46.886Z,22.10
2018-09-10T18:54:15.403Z,22.10
2018-09-10T18:56:43.899Z,22.10
2018-09-10T18:59:13.619Z,22.10
2018-09-10T19:01:42.295Z,22.00
2018-09-10T19:04:10.880Z,22.00
2018-09-10T19:06:39.529Z,21.90
2018-09-10T19:09:09.999Z,21.90
2018-09-10T19:11:38.501Z,21.80
2018-09-10T19:14:07.030Z,21.70
2018-09-10T19:16:35.990Z,21.70
2018-09-10T19:19:04.506Z,21.70
2018-09-10T19:21:33.147Z,21.60
2018-09-10T19:24:01.649Z,21.50
2018-09-10T19:26:30.477Z,21.50
2018-09-10T19:28:59.824Z,21.50
2018-09-10T19:31:28.746Z,21.50
2018-09-10T19:33:58.249Z,21.40
2018-09-10T19:36:29.510Z,21.40
2018-09-10T19:39:03.058Z,21.40
2018-09-10T19:41:38.033Z,21.30
2018-09-10T19:44:10.334Z,21.30
2018-09-10T19:46:41.056Z,21.30
2018-09-10T19:49:09.607Z,21.20
2018-09-10T19:51:38.426Z,21.20
2018-09-10T19:54:15.655Z,21.20
2018-09-10T19:56:47.716Z,21.20
2018-09-10T19:59:16.326Z,21.10
2018-09-10T20:01:44.870Z,21.00
2018-09-10T20:04:13.648Z,21.00
2018-09-10T20:06:42.136Z,21.00
2018-09-10T20:09:13.886Z,20.90
2018-09-10T20:11:42.370Z,20.90
2018-09-10T20:14:10.916Z,20.80
2018-09-10T20:16:42.660Z,20.80
2018-09-10T20:19:11.375Z,20.70
2018-09-10T20:21:40.299Z,20.70
2018-09-10T20:24:08.977Z,20.70
2018-09-10T20:26:37.546Z,20.80
2018-09-10T20:29:06.488Z,20.80
2018-09-10T20:31:35.435Z,20.70
2018-09-10T20:34:04.869Z,20.60
2018-09-10T20:36:34.609Z,20.70
2018-09-10T20:39:03.176Z,20.60
2018-09-10T20:41:31.668Z,20.60
2018-09-10T20:44:00.170Z,20.60
2018-09-10T20:46:28.653Z,20.40
2018-09-10T20:48:57.088Z,20.40
2018-09-10T20:51:25.618Z,20.40
2018-09-10T20:53:54.179Z,20.30
2018-09-10T20:56:22.676Z,20.30
2018-09-10T20:58:51.284Z,20.20
2018-09-10T21:01:19.954Z,20.20
2018-09-10T21:03:48.586Z,20.20
2018-09-10T21:06:17.449Z,20.10
2018-09-10T21:08:45.971Z,20.10
2018-09-10T21:11:14.406Z,20.00
2018-09-10T21:13:43.296Z,20.00
2018-09-10T21:16:11.901Z,20.00
2018-09-10T21:18:40.439Z,20.00
2018-09-10T21:21:08.943Z,20.00
2018-09-10T21:23:37.866Z,20.00
2018-09-10T21:26:06.983Z,19.80
2018-09-10T21:28:35.391Z,19.70
2018-09-10T21:31:03.776Z,19.60
2018-09-10T21:33:32.249Z,19.60
2018-09-10T21:36:01.742Z,19.60
2018-09-10T21:38:30.230Z,19.60
2018-09-10T21:40:58.638Z,19.60
2018-09-10T21:43:27.098Z,19.50
2018-09-10T21:45:55.647Z,19.50
2018-09-10T21:48:24.194Z,19.30
2018-09-10T21:50:52.591Z,19.30
2018-09-10T21:53:21.092Z,19.20
2018-09-10T21:55:49.601Z,19.20
2018-09-10T21:58:18.070Z,19.20
2018-09-10T22:00:51.847Z,19.10
2018-09-10T22:03:20.353Z,19.00
2018-09-10T22:05:48.959Z,19.00
2018-09-10T22:08:17.544Z,19.00
2018-09-10T22:10:46.019Z,19.00
2018-09-10T22:13:14.465Z,18.90
2018-09-10T22:15:43.306Z,18.90
2018-09-10T22:18:13.040Z,18.80
2018-09-10T22:20:41.572Z,18.80
2018-09-10T22:23:10.046Z,18.80
2018-09-10T22:25:38.830Z,18.80
2018-09-10T22:28:07.268Z,18.80
2018-09-10T22:30:36.481Z,18.70
2018-09-10T22:33:04.940Z,18.60
2018-09-10T22:35:33.538Z,18.60
2018-09-10T22:38:01.939Z,18.50
2018-09-10T22:40:31.278Z,18.50
2018-09-10T22:42:59.873Z,18.50
2018-09-10T22:45:28.276Z,18.60
2018-09-10T22:47:56.672Z,18.50
2018-09-10T22:50:25.151Z,18.50
2018-09-10T22:52:53.536Z,18.40
2018-09-10T22:55:21.948Z,18.40
2018-09-10T22:57:50.396Z,18.40
2018-09-10T23:00:18.867Z,18.40
2018-09-10T23:02:47.396Z,18.40
2018-09-10T23:05:15.923Z,18.30
2018-09-10T23:07:44.420Z,18.30
2018-09-10T23:10:12.885Z,18.30
2018-09-10T23:12:41.291Z,18.20
2018-09-10T23:15:09.757Z,18.20
2018-09-10T23:17:38.123Z,18.00
2018-09-10T23:20:07.381Z,18.00
2018-09-10T23:22:35.776Z,18.00
2018-09-10T23:25:04.244Z,18.00
2018-09-10T23:27:32.639Z,17.90
2018-09-10T23:30:01.068Z,17.90
2018-09-10T23:32:29.447Z,17.90
2018-09-10T23:34:57.856Z,17.80
2018-09-10T23:37:26.232Z,17.80
2018-09-10T23:39:54.658Z,17.80
2018-09-10T23:42:23.135Z,17.70
2018-09-10T23:44:51.546Z,17.80
2018-09-10T23:47:20.000Z,17.70
2018-09-10T23:49:48.532Z,17.80
2018-09-10T23:52:16.921Z,17.80
2018-09-10T23:54:45.325Z,17.80
2018-09-10T23:57:13.785Z,17.70
2018-09-10T23:59:42.288Z,17.60
